Stations météo

Publicité
Nimes/Courbessac, France (7645): Température de l'air & dewpoint: 28.05.2020 02:00:00 - 03.06.2020 02:00:00 (CEST)Nimes/Courbessac, France (7645): Température de l'air 5cm: 28.05.2020 02:00:00 - 03.06.2020 02:00:00 (CEST)Nimes/Courbessac, France (7645): Température de l'air -20cm: 28.05.2020 02:00:00 - 03.06.2020 02:00:00 (CEST)Nimes/Courbessac, France (7645): Vitesse du vent & gusts: 28.05.2020 02:00:00 - 03.06.2020 02:00:00 (CEST)Nimes/Courbessac, France (7645): Direction du vent: 28.05.2020 02:00:00 - 03.06.2020 02:00:00 (CEST)Nimes/Courbessac, France (7645): reduced air pressure: 28.05.2020 02:00:00 - 03.06.2020 02:00:00 (CEST)Nimes/Courbessac, France (7645): Ensoleillement: 28.05.2020 02:00:00 - 03.06.2020 02:00:00 (CEST)Nimes/Courbessac, France (7645): Quantités de précipitations: 28.05.2020 02:00:00 - 03.06.2020 02:00:00 (CEST)
Date & Time tt [°C] td [°C] tt 5cm [°C] tt -20cm [°C] ff [km/h] ff [knt] fx [km/h] fx [knt] dd ppp [hPa] sd [min] rr [mm]
03.06.2020 02:00:00 - - - - - - - - - - - -
03.06.2020 01:00:00 17,5 16,0 16,2 26,5 6 3 11 6 ESE 1012,7 0 0,0
03.06.2020 00:00:00 18,3 16,3 17,4 26,9 3 2 18 10 S 1013,1 0 0,0
02.06.2020 23:00:00 19,3 17,1 19,0 27,3 11 6 22 12 SSW 1013,5 0 0,0
02.06.2020 22:00:00 20,1 16,5 19,6 27,7 11 6 23 12 SSW 1012,9 0 0,0
02.06.2020 21:00:00 21,4 14,8 21,2 28,0 12 7 27 15 SSW 1012,8 46 0,0
02.06.2020 20:00:00 23,6 14,3 26,1 28,2 17 9 27 15 SSW 1012,6 60 0,0
02.06.2020 19:00:00 25,2 14,0 28,4 28,3 16 9 31 17 SW 1012,6 60 0,0
02.06.2020 18:00:00 26,6 13,3 31,5 28,0 16 9 30 16 SW 1013,0 60 0,0
02.06.2020 17:00:00 28,0 12,4 34,4 27,3 13 7 26 14 S 1013,4 60 0,0
02.06.2020 16:00:00 27,8 12,2 33,9 26,5 13 7 29 15 SSE 1014,0 60 0,0
02.06.2020 15:00:00 26,9 10,1 34,0 25,7 4 2 18 10 SE 1014,8 60 0,0
02.06.2020 14:00:00 25,9 11,3 33,0 24,8 11 6 22 12 SSE 1015,5 60 0,0
02.06.2020 13:00:00 25,7 11,5 31,2 24,2 6 3 15 8 ESE 1016,1 60 0,0
02.06.2020 12:00:00 22,9 10,3 23,7 24,0 4 2 9 5 WNW 1016,7 8 0,0
02.06.2020 11:00:00 21,7 12,3 22,9 23,9 2 1 12 6 ESE 1016,9 0 0,0
02.06.2020 10:00:00 22,7 12,6 21,9 23,7 0 0 11 6 N 1017,0 45 0,0
02.06.2020 09:00:00 19,2 12,7 20,0 23,9 8 5 18 10 N 1017,1 58 0,0
02.06.2020 08:00:00 17,4 14,1 15,1 24,2 5 3 10 5 N 1016,6 23 0,0
02.06.2020 07:00:00 15,4 13,9 14,4 24,4 6 3 9 5 NNW 1016,8 0 0,0
02.06.2020 06:00:00 15,6 13,6 14,6 24,7 3 1 13 7 NNE 1016,7 0 0,4
02.06.2020 05:00:00 17,8 16,1 16,7 25,0 5 3 8 4 NE 1016,7 0 0,2
02.06.2020 04:00:00 17,5 15,5 16,5 25,3 3 2 6 4 NW 1016,6 0 0,0
02.06.2020 03:00:00 17,5 15,1 17,0 25,7 2 1 5 3 N 1016,8 0 0,0
02.06.2020 02:00:00 17,2 14,8 16,0 26,0 4 2 8 5 NW 1017,3 0 0,0
02.06.2020 01:00:00 17,3 14,2 16,7 26,4 5 3 8 4 NNW 1017,5 0 0,0
02.06.2020 00:00:00 17,5 13,8 16,3 26,9 3 2 7 4 NNW 1017,9 0 0,0
01.06.2020 23:00:00 18,0 13,5 17,1 27,3 5 3 8 4 E 1017,5 0 0,0
01.06.2020 22:00:00 20,4 13,8 19,6 27,7 4 2 18 10 W 1017,4 0 0,0
01.06.2020 21:00:00 20,9 13,8 20,8 28,0 6 3 19 10 SW 1016,6 0 0,0
01.06.2020 20:00:00 22,0 11,4 22,8 28,1 14 8 25 13 SSW 1016,3 18 0,0
01.06.2020 19:00:00 22,6 12,5 24,1 28,2 15 8 29 15 SSW 1016,5 0 0,0
01.06.2020 18:00:00 23,3 14,8 25,1 28,0 17 9 31 17 SSW 1016,5 30 0,0
01.06.2020 17:00:00 24,9 13,4 28,2 27,5 18 10 32 17 S 1016,7 40 0,0
01.06.2020 16:00:00 26,4 10,9 30,3 26,8 14 8 34 19 S 1016,7 58 0,0
01.06.2020 15:00:00 26,0 11,0 29,2 26,0 17 9 30 16 S 1016,7 55 0,0
01.06.2020 14:00:00 25,9 14,0 32,2 25,1 13 7 28 15 S 1016,8 58 0,0
01.06.2020 13:00:00 24,9 13,1 30,5 24,3 13 7 25 13 S 1017,2 58 0,0
01.06.2020 12:00:00 24,2 12,8 28,0 23,7 13 7 24 13 SE 1017,5 41 0,0
01.06.2020 11:00:00 22,3 14,4 25,3 23,3 3 2 12 6 ESE 1017,5 17 0,0
01.06.2020 10:00:00 22,8 15,1 24,3 23,1 6 3 13 7 ESE 1017,4 56 0,0
01.06.2020 09:00:00 19,8 15,2 19,9 23,2 2 1 6 4 E 1017,1 60 0,0
01.06.2020 08:00:00 17,2 15,0 15,5 23,4 0 0 5 3 N 1016,6 7 0,0
01.06.2020 07:00:00 15,1 13,8 13,5 23,7 0 0 8 4 N 1016,1 14 0,0
01.06.2020 06:00:00 14,8 13,5 13,5 24,0 3 2 8 4 NNW 1015,6 0 0,0
01.06.2020 05:00:00 15,0 13,7 13,3 24,4 3 2 6 4 N 1015,7 0 0,0
01.06.2020 04:00:00 15,5 14,0 14,5 24,8 5 3 8 4 N 1015,9 0 0,0
01.06.2020 03:00:00 15,7 14,2 13,8 25,2 4 2 8 4 NNE 1016,2 0 0,0
01.06.2020 02:00:00 15,0 13,4 13,6 25,6 3 2 5 3 NNW 1016,3 0 0,0
01.06.2020 01:00:00 15,6 13,8 13,9 26,1 0 0 7 4 N 1016,3 0 0,0
01.06.2020 00:00:00 16,2 13,7 14,9 26,5 4 2 13 7 E 1016,2 0 0,0
31.05.2020 23:00:00 18,5 15,0 17,5 27,0 8 4 17 9 SSW 1016,2 0 0,0
31.05.2020 22:00:00 19,3 14,1 18,3 27,4 8 5 17 9 SSW 1015,6 0 0,0
31.05.2020 21:00:00 20,6 11,8 20,1 27,8 11 6 22 12 S 1015,0 52 0,0
31.05.2020 20:00:00 22,7 10,5 25,1 28,1 13 7 29 16 S 1014,4 60 0,0
31.05.2020 19:00:00 23,5 10,2 27,5 28,2 18 10 29 15 S 1013,8 60 0,0
31.05.2020 18:00:00 25,0 11,9 30,8 28,0 14 8 29 16 S 1014,1 60 0,0
31.05.2020 17:00:00 25,2 13,4 27,9 27,5 14 8 29 16 SSW 1014,2 54 0,0
31.05.2020 16:00:00 25,4 14,5 28,0 26,8 16 9 33 18 S 1014,7 48 0,0
31.05.2020 15:00:00 25,4 13,3 29,9 25,9 13 7 29 16 SSW 1014,9 49 0,0
31.05.2020 14:00:00 25,6 12,4 30,1 25,0 13 7 24 13 SW 1015,2 57 0,0
31.05.2020 13:00:00 24,7 12,9 28,7 24,2 10 5 19 10 S 1015,3 48 0,0
31.05.2020 12:00:00 24,3 13,5 26,5 23,5 13 7 18 10 SSE 1015,6 40 0,0
31.05.2020 11:00:00 23,5 13,9 24,4 23,1 8 4 15 8 SE 1015,7 42 0,0
31.05.2020 10:00:00 21,8 13,4 24,9 22,8 6 3 16 8 ESE 1015,8 60 0,0
31.05.2020 09:00:00 20,8 13,7 18,2 22,8 9 5 13 7 E 1015,9 36 0,0
31.05.2020 08:00:00 16,8 12,9 16,0 23,0 4 2 9 5 ENE 1016,0 5 0,0
31.05.2020 07:00:00 15,8 13,5 14,4 23,3 4 2 6 4 NE 1015,7 16 0,0
31.05.2020 06:00:00 14,1 12,7 12,8 23,6 4 2 7 4 NNW 1015,5 0 0,0
31.05.2020 05:00:00 14,1 12,7 12,9 23,9 5 3 7 4 NNW 1015,4 0 0,0
31.05.2020 04:00:00 14,8 13,3 13,7 24,2 4 2 9 5 NNE 1015,7 0 0,0
31.05.2020 03:00:00 14,8 13,2 12,6 24,7 3 2 5 3 N 1016,1 0 0,0
31.05.2020 02:00:00 14,8 12,5 13,3 25,1 2 1 6 3 N 1016,2 0 0,0
31.05.2020 01:00:00 14,6 12,6 12,8 25,6 3 2 5 3 NNE 1016,4 0 0,0
31.05.2020 00:00:00 15,7 12,8 13,9 26,0 0 0 13 7 N 1016,1 0 0,0
30.05.2020 23:00:00 17,6 13,5 16,3 26,5 5 3 14 7 SSW 1015,9 0 0,0
30.05.2020 22:00:00 18,0 12,0 16,9 26,9 6 3 17 9 S 1015,4 0 0,0
30.05.2020 21:00:00 19,8 11,0 19,2 27,3 11 6 28 15 S 1014,9 51 0,0
30.05.2020 20:00:00 22,2 7,6 23,7 27,6 14 8 31 17 SW 1014,5 54 0,0
30.05.2020 19:00:00 23,4 7,5 26,6 27,7 16 9 31 17 SW 1014,5 60 0,0
30.05.2020 18:00:00 24,1 7,7 29,5 27,6 16 9 30 16 S 1014,9 60 0,0
30.05.2020 17:00:00 24,5 7,2 30,6 27,1 16 9 37 20 SSW 1015,4 60 0,0
30.05.2020 16:00:00 24,7 6,9 30,8 26,4 22 12 39 21 S 1015,7 60 0,0
30.05.2020 15:00:00 24,8 7,4 31,7 25,5 19 11 37 20 SSW 1015,9 60 0,0
30.05.2020 14:00:00 24,8 7,0 32,0 24,6 18 10 36 19 S 1016,3 60 0,0
30.05.2020 13:00:00 24,2 7,8 31,4 23,7 14 8 44 24 S 1016,6 60 0,0
30.05.2020 12:00:00 23,8 7,8 29,0 22,9 7 4 19 11 SSE 1017,0 60 0,0
30.05.2020 11:00:00 22,2 7,2 28,1 22,4 7 4 15 8 SSW 1017,3 60 0,0
30.05.2020 10:00:00 21,4 9,6 24,4 22,2 5 3 13 7 SE 1017,6 60 0,0
30.05.2020 09:00:00 20,6 11,2 20,9 22,2 10 5 20 11 E 1018,0 60 0,0
30.05.2020 08:00:00 17,7 11,3 12,0 22,5 8 4 14 8 ENE 1018,0 60 0,0
30.05.2020 07:00:00 13,0 9,4 11,0 22,8 2 1 10 5 NNW 1018,2 32 0,0
30.05.2020 06:00:00 12,1 8,8 10,9 23,2 6 3 9 5 NNW 1018,1 0 0,0
30.05.2020 05:00:00 12,8 9,1 11,7 23,6 7 4 10 6 NNW 1018,3 0 0,0
30.05.2020 04:00:00 13,0 9,3 11,9 24,1 7 4 10 5 NNW 1018,8 0 0,0
30.05.2020 03:00:00 13,3 9,5 12,4 24,5 7 4 11 6 NNW 1018,9 0 0,0
30.05.2020 02:00:00 14,1 9,9 12,9 25,0 6 3 9 5 NNW 1019,0 0 0,0
30.05.2020 01:00:00 15,0 10,4 13,2 25,5 4 2 8 4 NNW 1019,3 0 0,0
30.05.2020 00:00:00 15,8 10,8 14,0 26,0 4 2 8 4 NNW 1019,3 0 0,0
29.05.2020 23:00:00 16,9 11,2 15,3 26,4 4 2 10 6 NNE 1019,3 0 0,0
29.05.2020 22:00:00 17,3 11,3 16,1 26,8 5 3 16 9 E 1018,8 0 0,0
29.05.2020 21:00:00 20,2 11,4 19,7 27,2 13 7 27 15 SSE 1017,9 27 0,0
29.05.2020 20:00:00 22,4 11,5 24,2 27,4 13 7 38 20 S 1017,3 60 0,0
29.05.2020 19:00:00 22,8 9,6 26,0 27,6 25 13 48 26 S 1017,3 60 0,0
29.05.2020 18:00:00 23,4 10,8 28,0 27,5 29 16 51 27 S 1016,9 60 0,0
29.05.2020 17:00:00 23,8 13,1 26,2 27,0 31 17 51 27 S 1016,6 55 0,0
29.05.2020 16:00:00 25,1 14,5 30,1 26,2 29 16 46 25 S 1016,1 60 0,0
29.05.2020 15:00:00 29,1 6,5 34,8 25,3 8 4 56 30 ENE 1015,5 60 0,0
29.05.2020 14:00:00 27,9 7,7 34,1 24,4 11 6 27 15 NNE 1015,8 60 0,0
29.05.2020 13:00:00 27,2 9,1 31,0 23,6 14 8 29 15 NNE 1016,1 60 0,0
29.05.2020 12:00:00 25,0 9,7 27,7 23,1 14 8 34 18 N 1016,4 36 -
29.05.2020 11:00:00 - - 29,0 - 15 8 34 18 NNE - 54 0,0
29.05.2020 10:00:00 23,7 8,5 26,8 22,4 18 10 35 19 NNE 1016,6 60 0,0
29.05.2020 09:00:00 22,1 9,3 23,9 22,4 12 6 31 17 N 1016,9 60 0,0
29.05.2020 08:00:00 20,1 9,0 15,1 22,7 12 6 22 12 NNW 1017,1 60 0,0
29.05.2020 07:00:00 16,0 9,4 10,9 23,1 2 1 13 7 N 1017,6 31 0,0
29.05.2020 06:00:00 12,9 9,5 10,9 23,5 4 2 8 4 NNE 1017,8 0 0,0
29.05.2020 05:00:00 13,9 10,9 11,6 23,9 5 3 11 6 N 1017,9 0 0,0
29.05.2020 04:00:00 16,2 11,1 12,4 24,3 5 3 12 7 NNW 1018,2 0 0,0
29.05.2020 03:00:00 14,5 11,3 12,6 24,8 0 0 11 6 N 1018,7 0 0,0
29.05.2020 02:00:00 16,4 11,8 13,8 25,2 7 4 11 6 NNW 1019,0 0 0,0
29.05.2020 01:00:00 16,4 12,0 14,3 25,7 0 0 9 5 N 1019,5 0 0,0
29.05.2020 00:00:00 18,1 13,0 16,1 26,2 4 2 10 5 WNW 1019,7 0 0,0
28.05.2020 23:00:00 19,7 13,6 17,4 26,6 4 2 12 7 W 1020,2 0 0,0
28.05.2020 22:00:00 20,4 13,1 19,2 27,1 4 2 18 10 SW 1020,0 0 0,0
28.05.2020 21:00:00 21,9 12,4 21,3 27,4 8 4 23 12 SSW 1019,9 49 0,0
28.05.2020 20:00:00 24,2 11,8 26,4 27,7 11 6 26 14 SSW 1019,8 60 0,0
28.05.2020 19:00:00 26,1 10,3 29,1 27,8 14 8 33 18 SW 1019,7 60 0,0
28.05.2020 18:00:00 26,2 9,5 30,6 27,7 17 9 39 21 SW 1020,2 60 0,0
28.05.2020 17:00:00 26,9 12,5 32,6 27,1 22 12 37 20 SSW 1020,5 60 0,0
28.05.2020 16:00:00 27,9 11,4 33,6 26,3 16 9 35 19 SSW 1021,2 60 0,0
28.05.2020 15:00:00 28,9 10,1 36,1 25,3 10 6 22 12 WSW 1021,8 60 0,0
28.05.2020 14:00:00 28,4 9,6 29,9 24,4 11 6 22 12 SSW 1022,5 56 0,0
28.05.2020 13:00:00 27,3 8,2 31,2 23,4 2 1 16 9 WSW 1023,5 52 0,0
28.05.2020 12:00:00 26,3 9,2 31,7 22,6 6 3 18 10 SSW 1024,3 60 0,0
28.05.2020 11:00:00 26,5 11,0 29,7 22,0 7 4 15 8 E 1025,0 60 0,0
28.05.2020 10:00:00 22,8 14,1 25,4 21,7 4 2 12 6 SE 1025,7 60 0,0
28.05.2020 09:00:00 19,7 14,3 21,3 21,7 4 2 8 4 SE 1026,1 60 0,0
28.05.2020 08:00:00 17,7 13,8 12,9 21,9 0 0 9 5 N 1026,6 60 0,0
28.05.2020 07:00:00 13,7 11,9 11,9 22,3 2 1 10 5 N 1026,9 31 0,0
28.05.2020 06:00:00 12,8 11,5 9,7 22,7 5 3 9 5 NW 1027,0 0 0,0
28.05.2020 05:00:00 12,2 11,1 10,2 23,1 0 0 4 2 N 1027,0 0 0,0
28.05.2020 04:00:00 13,3 11,5 10,9 23,5 3 2 9 5 NNW 1027,3 0 0,0
28.05.2020 03:00:00 12,6 10,5 10,9 24,0 2 1 8 4 NNW 1027,7 0 0,0
28.05.2020 02:00:00 14,5 12,0 12,9 24,4 3 1 9 5 NNW 1027,9 0 0,0

tt = Température de l'air
td = dewpoint
tt 5cm = Température de l'air 5cm
tt -20cm = Température de l'air -20cm
ff = Vitesse du vent
fx = gusts
dd = Direction du vent
ppp = reduced air pressure
sd = Ensoleillement
rr = Quantités de précipitations

stations d'obs. à proximité